Time;durP1;ratioP1;P1;durP2;ratioP2;P2;SDS_P1;SDS_P2;PMS_P1;PMS_P2;Temp;Humidity;BMP_temperature;BMP_pressure;BME280_temperature;BME280_humidity;BME280_pressure;Samples;Min_cycle;Max_cycle;Signal;HPM_P1;HPM_P2
2021/03/27 00:02:30;;;;;;;64.67;9.80;;;10.70;1.00;;;;;;5094816;28;20548;-66
2021/03/27 00:05:10;;;;;;;65.13;9.50;;;10.70;1.00;;;;;;5094653;28;20509;-66
2021/03/27 00:07:48;;;;;;;72.13;11.60;;;10.80;1.00;;;;;;5094832;28;20524;-66
2021/03/27 00:10:21;;;;;;;64.33;7.80;;;10.80;1.00;;;;;;5094684;28;20485;-66
2021/03/27 00:12:52;;;;;;;63.07;8.80;;;10.90;1.00;;;;;;5094620;28;20853;-66
2021/03/27 00:15:25;;;;;;;62.67;8.40;;;11.20;1.00;;;;;;5094459;28;20959;-66
2021/03/27 00:17:57;;;;;;;66.00;7.30;;;11.60;1.00;;;;;;5094394;28;20525;-66
2021/03/27 00:20:32;;;;;;;62.37;7.87;;;12.00;1.00;;;;;;5094264;28;20486;-66
2021/03/27 00:23:02;;;;;;;63.27;6.90;;;12.30;1.00;;;;;;5094425;28;20507;-67
2021/03/27 00:25:32;;;;;;;62.80;6.90;;;12.50;1.00;;;;;;5094431;28;20488;-66
2021/03/27 00:28:09;;;;;;;62.50;7.90;;;12.50;1.00;;;;;;5094630;28;20470;-66
2021/03/27 00:30:41;;;;;;;61.10;6.93;;;12.60;1.00;;;;;;5094279;28;20452;-66
2021/03/27 00:33:08;;;;;;;60.20;6.67;;;12.60;1.00;;;;;;5094165;28;20450;-66
2021/03/27 00:35:38;;;;;;;61.07;6.50;;;12.60;1.00;;;;;;5093963;28;20954;-66
2021/03/27 00:38:10;;;;;;;65.83;6.43;;;12.70;1.00;;;;;;5094143;28;20577;-67
2021/03/27 00:40:41;;;;;;;60.97;6.00;;;12.70;1.00;;;;;;5093949;28;20511;-66
2021/03/27 00:43:12;;;;;;;60.63;6.57;;;12.70;1.00;;;;;;5093949;28;20481;-66
2021/03/27 00:45:42;;;;;;;63.60;6.50;;;12.60;1.00;;;;;;5094083;28;20525;-66
2021/03/27 00:48:13;;;;;;;59.37;5.77;;;12.70;1.00;;;;;;5094400;28;20568;-66
2021/03/27 00:50:44;;;;;;;59.57;5.77;;;12.70;1.00;;;;;;5093883;28;20474;-66
2021/03/27 00:53:15;;;;;;;60.30;5.77;;;12.70;1.00;;;;;;5093573;28;20480;-66
2021/03/27 00:55:48;;;;;;;59.90;6.33;;;12.60;1.00;;;;;;5093853;28;20446;-66
2021/03/27 00:58:22;;;;;;;61.00;6.43;;;12.60;1.00;;;;;;5092918;28;20522;-66
2021/03/27 01:00:51;;;;;;;62.73;6.30;;;12.60;1.00;;;;;;5093815;28;20632;-66
2021/03/27 01:03:22;;;;;;;60.60;6.47;;;12.50;1.00;;;;;;5093554;28;20454;-66
2021/03/27 01:05:51;;;;;;;60.30;6.97;;;12.40;1.00;;;;;;5093946;28;20971;-66
2021/03/27 01:08:19;;;;;;;60.77;5.97;;;12.40;1.00;;;;;;5093314;28;20560;-66
2021/03/27 01:10:52;;;;;;;59.87;6.03;;;12.30;1.00;;;;;;5093367;28;20533;-66
2021/03/27 01:13:22;;;;;;;59.47;6.23;;;12.30;1.00;;;;;;5093353;28;20553;-66
2021/03/27 01:15:54;;;;;;;59.67;5.70;;;12.20;1.00;;;;;;5093281;28;20533;-66
2021/03/27 01:18:26;;;;;;;61.30;5.60;;;12.20;1.00;;;;;;5093467;28;20557;-66
2021/03/27 01:21:03;;;;;;;60.47;6.30;;;12.10;1.00;;;;;;5093443;28;20449;-66
2021/03/27 01:23:30;;;;;;;62.97;6.33;;;12.10;1.00;;;;;;5093264;28;20545;-66
2021/03/27 01:26:01;;;;;;;62.57;5.97;;;12.10;1.00;;;;;;5093062;28;20541;-66
2021/03/27 01:28:32;;;;;;;61.47;6.20;;;12.10;1.00;;;;;;5092766;28;20476;-65
2021/03/27 01:31:08;;;;;;;65.90;7.27;;;12.10;1.00;;;;;;5093313;28;20634;-66
2021/03/27 01:33:39;;;;;;;59.97;5.80;;;12.10;1.00;;;;;;5092654;28;20477;-66
2021/03/27 01:36:12;;;;;;;59.63;5.73;;;12.10;1.00;;;;;;5092870;28;20552;-66
2021/03/27 01:38:47;;;;;;;59.07;5.20;;;12.10;1.00;;;;;;5093359;28;20466;-66
2021/03/27 01:41:21;;;;;;;60.13;5.90;;;12.00;1.00;;;;;;5092696;28;20512;-66
2021/03/27 01:43:57;;;;;;;59.67;6.07;;;12.00;1.00;;;;;;5093027;28;20477;-66
2021/03/27 01:46:52;;;;;;;58.87;5.60;;;12.00;1.00;;;;;;5092696;28;20540;-66
2021/03/27 01:49:33;;;;;;;58.60;5.30;;;11.90;1.00;;;;;;5092363;28;20470;-66
2021/03/27 01:52:20;;;;;;;59.57;5.67;;;11.90;1.00;;;;;;5092051;28;20483;-66
2021/03/27 01:54:55;;;;;;;60.20;5.53;;;11.90;1.00;;;;;;5092497;28;20475;-66
2021/03/27 01:57:30;;;;;;;60.70;5.90;;;11.80;1.00;;;;;;5092609;28;20897;-66
2021/03/27 01:59:59;;;;;;;59.50;5.83;;;11.70;1.00;;;;;;5092340;28;20444;-66
2021/03/27 02:02:33;;;;;;;60.20;5.30;;;11.50;1.00;;;;;;5092493;28;20532;-66
2021/03/27 02:05:05;;;;;;;59.17;5.70;;;11.30;1.00;;;;;;5092348;28;20455;-65
2021/03/27 02:07:44;;;;;;;59.07;5.50;;;11.10;1.00;;;;;;5092369;28;20559;-66
2021/03/27 02:10:19;;;;;;;59.47;6.10;;;11.00;1.00;;;;;;5092133;28;20832;-65
2021/03/27 02:12:57;;;;;;;59.90;6.53;;;10.80;1.00;;;;;;5092090;28;20486;-64
2021/03/27 02:15:36;;;;;;;59.87;6.47;;;10.70;1.00;;;;;;5092311;28;20552;-65
2021/03/27 02:18:07;;;;;;;60.30;6.47;;;10.60;1.00;;;;;;5092133;28;20559;-65
2021/03/27 02:20:58;;;;;;;61.57;5.90;;;10.50;1.00;;;;;;5091899;28;20590;-65
2021/03/27 02:23:36;;;;;;;60.93;6.10;;;10.40;1.00;;;;;;5092139;28;20536;-66
2021/03/27 02:26:19;;;;;;;60.80;7.00;;;10.40;1.00;;;;;;5092147;28;20480;-65
2021/03/27 02:29:04;;;;;;;60.90;6.80;;;10.30;1.00;;;;;;5091999;28;20547;-66
2021/03/27 02:31:36;;;;;;;61.30;7.00;;;10.20;1.00;;;;;;5092141;28;20549;-65
2021/03/27 02:34:11;;;;;;;60.80;6.93;;;10.20;1.00;;;;;;5091765;28;20606;-65
2021/03/27 02:36:47;;;;;;;61.57;6.83;;;10.10;1.00;;;;;;5091932;28;20881;-65
2021/03/27 02:39:19;;;;;;;61.47;6.87;;;10.10;1.00;;;;;;5091645;28;20470;-65
2021/03/27 02:41:57;;;;;;;61.77;7.83;;;10.00;1.00;;;;;;5092179;28;20469;-66
2021/03/27 02:44:31;;;;;;;60.70;6.90;;;10.00;1.00;;;;;;5091891;28;20535;-66
2021/03/27 02:47:06;;;;;;;62.27;6.53;;;10.00;1.00;;;;;;5091721;28;20543;-64
2021/03/27 02:49:45;;;;;;;61.67;7.13;;;9.90;1.00;;;;;;5091737;28;20506;-65
2021/03/27 02:52:29;;;;;;;63.60;8.30;;;9.90;1.00;;;;;;5091499;28;20519;-66
2021/03/27 02:54:58;;;;;;;64.60;7.07;;;9.80;1.00;;;;;;5091717;28;20486;-66
2021/03/27 02:57:34;;;;;;;61.93;7.33;;;9.80;1.00;;;;;;5091519;28;20261;-66
2021/03/27 03:00:12;;;;;;;61.70;7.57;;;9.80;1.00;;;;;;5091493;28;20470;-66
2021/03/27 03:02:47;;;;;;;61.27;7.07;;;9.70;1.00;;;;;;5091616;28;20452;-66
2021/03/27 03:05:19;;;;;;;60.27;6.80;;;9.70;1.00;;;;;;5091664;28;20546;-66
2021/03/27 03:07:59;;;;;;;61.77;6.83;;;9.70;1.00;;;;;;5091739;28;20482;-65
2021/03/27 03:10:32;;;;;;;59.63;6.20;;;9.60;1.00;;;;;;5091406;28;20461;-65
2021/03/27 03:13:05;;;;;;;61.30;5.70;;;9.60;1.00;;;;;;5091474;28;20571;-66
2021/03/27 03:15:38;;;;;;;59.00;5.40;;;9.60;1.00;;;;;;5091543;28;20448;-66
2021/03/27 03:18:16;;;;;;;58.97;5.63;;;9.60;1.00;;;;;;5091307;28;20620;-66
2021/03/27 03:20:53;;;;;;;58.60;5.07;;;9.70;1.00;;;;;;5092163;28;20538;-65
2021/03/27 03:23:28;;;;;;;59.50;5.20;;;9.70;1.00;;;;;;5095970;28;20517;-65
2021/03/27 03:26:03;;;;;;;60.40;5.53;;;9.70;1.00;;;;;;5095338;28;20457;-65
2021/03/27 03:28:40;;;;;;;60.90;5.73;;;9.70;1.00;;;;;;5095355;28;20549;-65
2021/03/27 03:31:18;;;;;;;59.90;5.20;;;9.70;1.00;;;;;;5095267;28;20488;-65
2021/03/27 03:34:20;;;;;;;61.30;5.17;;;9.70;1.00;;;;;;5094920;28;20547;-66
2021/03/27 03:37:05;;;;;;;59.20;5.07;;;9.80;1.00;;;;;;5095053;28;20495;-65
2021/03/27 03:39:48;;;;;;;58.80;4.90;;;9.80;1.00;;;;;;5095161;28;20530;-65
2021/03/27 03:42:39;;;;;;;59.07;5.20;;;9.80;1.00;;;;;;5095251;28;20880;-65
2021/03/27 03:45:12;;;;;;;58.07;4.60;;;9.80;1.00;;;;;;5095105;28;20878;-65
2021/03/27 03:47:48;;;;;;;59.50;5.63;;;9.80;1.00;;;;;;5095039;28;20603;-65
2021/03/27 03:50:29;;;;;;;59.00;5.00;;;9.80;1.00;;;;;;5094674;28;20529;-65
2021/03/27 03:53:11;;;;;;;58.77;5.20;;;9.70;1.00;;;;;;5094721;28;20488;-65
2021/03/27 03:55:50;;;;;;;58.07;5.00;;;9.70;1.00;;;;;;5094965;28;20452;-65
2021/03/27 03:58:29;;;;;;;58.30;3.50;;;9.70;1.00;;;;;;5094806;28;20474;-65
2021/03/27 04:01:04;;;;;;;57.00;3.50;;;9.50;1.00;;;;;;5094962;28;20881;-66
2021/03/27 04:03:37;;;;;;;62.73;2.73;;;9.30;1.00;;;;;;5094968;28;20447;-65
2021/03/27 04:06:08;;;;;;;56.57;2.80;;;9.00;1.00;;;;;;5094858;28;20486;-65
2021/03/27 04:08:45;;;;;;;56.40;3.00;;;8.80;1.00;;;;;;5094450;28;21039;-65
2021/03/27 04:11:35;;;;;;;57.38;2.90;;;8.60;1.00;;;;;;5094439;28;20930;-66
2021/03/27 04:14:12;;;;;;;56.50;2.53;;;8.50;1.00;;;;;;5094415;28;20296;-66
2021/03/27 04:16:43;;;;;;;57.40;2.97;;;8.40;1.00;;;;;;5094585;28;20237;-66
2021/03/27 04:19:15;;;;;;;56.20;2.90;;;8.30;1.00;;;;;;5094470;28;20555;-66
2021/03/27 04:21:54;;;;;;;57.40;3.13;;;8.20;1.00;;;;;;5094444;28;20610;-66
2021/03/27 04:24:27;;;;;;;56.23;2.80;;;8.10;1.00;;;;;;5094562;28;20219;-66
2021/03/27 04:26:58;;;;;;;56.67;2.83;;;8.10;1.00;;;;;;5094339;28;20492;-65
2021/03/27 04:29:38;;;;;;;57.15;2.80;;;8.00;1.00;;;;;;5094265;28;20530;-66
2021/03/27 04:32:31;;;;;;;56.90;2.90;;;8.00;1.00;;;;;;5093293;28;20245;-66
2021/03/27 04:35:10;;;;;;;57.80;2.58;;;8.00;1.00;;;;;;5093965;28;20212;-65
2021/03/27 04:37:43;;;;;;;56.25;2.58;;;7.90;1.00;;;;;;5094182;28;20662;-66
2021/03/27 04:40:18;;;;;;;57.72;2.58;;;7.90;1.00;;;;;;5094378;28;20260;-66
2021/03/27 04:42:52;;;;;;;56.38;2.50;;;7.80;1.00;;;;;;5094101;28;20302;-72
2021/03/27 04:45:25;;;;;;;56.47;2.60;;;7.80;1.00;;;;;;5093985;28;20246;-67
2021/03/27 04:48:12;;;;;;;56.10;2.25;;;7.80;1.00;;;;;;5093940;28;20310;-66
2021/03/27 04:50:46;;;;;;;56.95;3.20;;;7.70;1.00;;;;;;5093766;28;20291;-66
2021/03/27 04:53:20;;;;;;;56.17;2.30;;;7.70;1.00;;;;;;5093835;28;20222;-66
2021/03/27 04:56:04;;;;;;;56.20;2.75;;;7.60;1.00;;;;;;5093681;28;20732;-66
2021/03/27 04:58:39;;;;;;;56.95;2.72;;;7.60;1.00;;;;;;5093649;28;20230;-66
2021/03/27 05:01:41;;;;;;;56.88;2.50;;;7.50;1.00;;;;;;5093541;28;20677;-66
2021/03/27 05:04:15;;;;;;;56.40;2.30;;;7.50;1.00;;;;;;5093541;28;20269;-66
2021/03/27 05:06:43;;;;;;;56.20;2.50;;;7.40;1.00;;;;;;5093493;28;20217;-66
2021/03/27 05:09:31;;;;;;;56.38;2.67;;;7.30;1.00;;;;;;5093069;28;20225;-66
2021/03/27 05:12:03;;;;;;;56.10;2.40;;;7.30;1.00;;;;;;5093513;28;20311;-66
2021/03/27 05:14:54;;;;;;;56.10;2.60;;;7.30;1.00;;;;;;5093603;28;20636;-67
2021/03/27 05:17:26;;;;;;;56.30;2.50;;;7.20;1.00;;;;;;5093320;28;20228;-65
2021/03/27 05:20:01;;;;;;;56.28;2.50;;;7.10;1.00;;;;;;5093111;28;20232;-65
2021/03/27 05:22:41;;;;;;;56.17;2.58;;;7.10;1.00;;;;;;5093172;28;20204;-66
2021/03/27 05:25:31;;;;;;;56.28;2.75;;;7.00;1.00;;;;;;5093279;28;20601;-66
2021/03/27 05:28:19;;;;;;;57.00;2.80;;;7.10;1.00;;;;;;5085079;28;20247;-66
2021/03/27 05:30:56;;;;;;;56.60;2.72;;;7.10;1.00;;;;;;5093116;28;20287;-66
2021/03/27 05:33:31;;;;;;;56.28;2.95;;;7.00;1.00;;;;;;5092857;28;20208;-66
2021/03/27 05:36:30;;;;;;;56.15;2.50;;;7.00;1.00;;;;;;5093030;28;20200;-66
2021/03/27 05:39:10;;;;;;;56.53;2.80;;;7.00;1.00;;;;;;5066683;28;20258;-66
2021/03/27 05:41:50;;;;;;;57.10;3.20;;;7.00;1.00;;;;;;5093063;28;20207;-66
2021/03/27 05:44:59;;;;;;;56.30;2.60;;;7.00;1.00;;;;;;5092541;28;20215;-66
2021/03/27 05:48:13;;;;;;;56.75;2.88;;;6.90;1.00;;;;;;5063340;28;20315;-66
2021/03/27 05:51:19;;;;;;;56.53;2.80;;;6.90;1.00;;;;;;5092604;28;20291;-67
2021/03/27 05:54:10;;;;;;;56.47;2.75;;;6.90;1.00;;;;;;5092693;28;20289;-66
2021/03/27 05:57:14;;;;;;;56.08;2.70;;;6.80;1.00;;;;;;5092635;28;20215;-66
2021/03/27 06:00:27;;;;;;;56.30;2.60;;;6.90;1.00;;;;;;5092804;28;20295;-66
2021/03/27 06:03:17;;;;;;;57.83;2.67;;;7.00;1.00;;;;;;5029884;28;20286;-66
2021/03/27 06:06:22;;;;;;;56.20;2.80;;;6.90;1.00;;;;;;5092712;28;20299;-66
2021/03/27 06:09:06;;;;;;;56.85;2.75;;;6.90;1.00;;;;;;5091010;28;20315;-66
2021/03/27 06:11:42;;;;;;;55.90;2.50;;;6.80;1.00;;;;;;5092458;28;20315;-66
2021/03/27 06:14:34;;;;;;;56.17;2.55;;;6.80;1.00;;;;;;5092035;28;20291;-66
2021/03/27 06:17:18;;;;;;;56.88;2.50;;;6.80;1.00;;;;;;5092319;28;20208;-66
2021/03/27 06:20:19;;;;;;;56.25;2.33;;;6.70;1.00;;;;;;5092164;28;20318;-66
2021/03/27 06:23:05;;;;;;;56.10;2.40;;;6.80;1.00;;;;;;5091984;28;20287;-66
2021/03/27 06:25:44;;;;;;;59.83;2.63;;;6.70;1.00;;;;;;5092088;28;20204;-66
2021/03/27 06:28:46;;;;;;;56.50;2.72;;;6.80;1.00;;;;;;5091992;28;20315;-66
2021/03/27 06:31:28;;;;;;;63.47;3.30;;;6.80;1.00;;;;;;5092153;28;20214;-67
2021/03/27 06:34:41;;;;;;;56.30;2.53;;;6.90;1.00;;;;;;5091880;28;20219;-66
2021/03/27 06:37:51;;;;;;;57.42;2.60;;;6.90;1.00;;;;;;5092057;28;20205;-65
2021/03/27 06:40:36;;;;;;;57.13;2.80;;;7.00;1.00;;;;;;5091840;28;20252;-66
2021/03/27 06:43:27;;;;;;;56.53;2.33;;;7.00;1.00;;;;;;5091562;28;20196;-66
2021/03/27 06:46:01;;;;;;;56.95;2.58;;;6.90;1.00;;;;;;5091656;28;20218;-66
2021/03/27 06:48:57;;;;;;;56.70;2.50;;;6.90;1.00;;;;;;5091624;28;20234;-66
2021/03/27 06:51:49;;;;;;;56.08;2.47;;;6.80;1.00;;;;;;5091557;28;20310;-66
2021/03/27 06:54:45;;;;;;;59.13;2.90;;;6.80;1.00;;;;;;5083188;28;20235;-66
2021/03/27 06:57:31;;;;;;;57.53;2.60;;;6.70;1.00;;;;;;5065034;28;20296;-65
2021/03/27 07:00:36;;;;;;;56.60;2.72;;;6.60;1.00;;;;;;5091512;28;20303;-66
2021/03/27 07:03:54;;;;;;;56.90;2.50;;;6.50;1.00;;;;;;5091624;28;20287;-66
2021/03/27 07:06:48;;;;;;;57.58;2.60;;;6.50;1.00;;;;;;5028966;28;20298;-66
2021/03/27 07:10:05;;;;;;;59.25;3.05;;;6.60;1.00;;;;;;5018969;28;20276;-66
2021/03/27 07:13:08;;;;;;;60.17;3.00;;;6.80;1.00;;;;;;5089627;28;20722;-66
2021/03/27 07:16:03;;;;;;;56.58;2.70;;;7.10;1.00;;;;;;5091585;28;20641;-66
2021/03/27 07:19:07;;;;;;;56.10;2.65;;;7.40;1.00;;;;;;5091241;28;20255;-66
2021/03/27 07:22:05;;;;;;;56.58;2.30;;;7.40;1.00;;;;;;5060265;28;20200;-66
2021/03/27 07:25:17;;;;;;;56.35;2.60;;;7.50;1.00;;;;;;5091405;28;20205;-66
2021/03/27 07:27:56;;;;;;;56.97;2.92;;;7.70;1.00;;;;;;5085140;28;20797;-66
2021/03/27 07:30:48;;;;;;;56.45;2.72;;;7.80;1.00;;;;;;5091376;28;20648;-66
2021/03/27 07:33:35;;;;;;;56.63;2.63;;;7.80;1.00;;;;;;5090997;28;20240;-66
2021/03/27 07:36:42;;;;;;;57.58;2.80;;;8.00;1.00;;;;;;5091417;28;20248;-66
2021/03/27 07:39:45;;;;;;;61.88;2.70;;;8.00;1.00;;;;;;5090789;28;20798;-66
2021/03/27 07:42:55;;;;;;;57.65;2.42;;;8.00;1.00;;;;;;5088163;28;20198;-66
2021/03/27 07:45:40;;;;;;;58.10;2.60;;;8.00;1.00;;;;;;5075732;28;20219;-66
2021/03/27 07:48:31;;;;;;;55.85;2.42;;;7.90;1.00;;;;;;5090517;28;20746;-66
2021/03/27 07:51:17;;;;;;;56.70;2.80;;;7.90;1.00;;;;;;5090967;28;20235;-66
2021/03/27 07:54:03;;;;;;;57.38;2.53;;;7.90;1.00;;;;;;5091133;28;20255;-66
2021/03/27 07:56:43;;;;;;;56.20;2.53;;;7.80;1.00;;;;;;5059485;28;20208;-65
2021/03/27 07:59:52;;;;;;;56.30;2.28;;;7.80;1.00;;;;;;5091188;28;20467;-66
2021/03/27 08:02:38;;;;;;;57.63;2.90;;;7.70;1.00;;;;;;5091336;28;20464;-65
2021/03/27 08:05:29;;;;;;;56.92;2.42;;;7.70;1.00;;;;;;5091053;28;20208;-65
2021/03/27 08:08:22;;;;;;;56.33;2.60;;;7.70;1.00;;;;;;5093683;28;20318;-66
2021/03/27 08:11:09;;;;;;;57.75;2.80;;;7.80;1.00;;;;;;5095044;28;20238;-66
2021/03/27 08:13:58;;;;;;;57.60;2.60;;;7.90;1.00;;;;;;5094505;28;20207;-65
2021/03/27 08:16:47;;;;;;;56.42;2.50;;;8.10;1.00;;;;;;5094637;28;20533;-66
2021/03/27 08:19:53;;;;;;;57.42;2.45;;;8.20;1.00;;;;;;5094469;28;20312;-66
2021/03/27 08:22:59;;;;;;;57.17;2.57;;;8.40;1.00;;;;;;5081159;28;20677;-66
2021/03/27 08:25:37;;;;;;;56.15;2.20;;;8.80;1.00;;;;;;5094558;28;20568;-65
2021/03/27 08:28:43;;;;;;;55.70;2.10;;;9.10;1.00;;;;;;5094347;28;20735;-65
2021/03/27 08:31:36;;;;;;;55.93;2.10;;;9.30;1.00;;;;;;5094532;28;20474;-65
2021/03/27 08:34:25;;;;;;;57.85;2.60;;;9.40;1.00;;;;;;5094002;28;20547;-65
2021/03/27 08:37:13;;;;;;;57.57;2.50;;;9.30;1.00;;;;;;5084821;28;20235;-64
2021/03/27 08:40:13;;;;;;;57.47;2.37;;;9.20;1.00;;;;;;5093909;28;20534;-66
2021/03/27 08:43:22;;;;;;;56.53;2.40;;;9.00;1.00;;;;;;5094078;28;20449;-66
2021/03/27 08:46:24;;;;;;;56.97;2.55;;;8.80;1.00;;;;;;5093975;28;20293;-65
2021/03/27 08:49:33;;;;;;;56.10;2.60;;;8.80;1.00;;;;;;5093704;28;20311;-66
2021/03/27 08:52:19;;;;;;;55.90;2.25;;;8.80;1.00;;;;;;5093831;28;21028;-66
2021/03/27 08:55:00;;;;;;;57.40;2.30;;;8.80;1.00;;;;;;5094033;28;20303;-66
2021/03/27 08:58:02;;;;;;;56.85;2.45;;;8.80;1.00;;;;;;5093911;28;20472;-65
2021/03/27 09:01:14;;;;;;;56.17;2.20;;;8.90;1.00;;;;;;5072088;28;20274;-66
2021/03/27 09:04:20;;;;;;;56.77;2.30;;;8.90;1.00;;;;;;5093712;28;20921;-65
2021/03/27 09:07:35;;;;;;;57.37;2.30;;;9.00;1.00;;;;;;5093206;28;20478;-67
2021/03/27 09:10:31;;;;;;;56.85;2.10;;;9.10;1.00;;;;;;5030999;28;20528;-66
2021/03/27 09:13:38;;;;;;;55.53;2.10;;;9.20;1.00;;;;;;5030688;28;20222;-66
2021/03/27 09:16:58;;;;;;;57.33;2.40;;;9.20;1.00;;;;;;5082399;28;20289;-66
2021/03/27 09:19:55;;;;;;;56.07;2.17;;;9.30;1.00;;;;;;5072122;28;20487;-66
2021/03/27 09:22:49;;;;;;;56.47;2.30;;;9.40;1.00;;;;;;5072858;28;20449;-66
2021/03/27 09:25:32;;;;;;;56.90;2.23;;;9.50;1.00;;;;;;5073032;28;20532;-66
2021/03/27 09:28:24;;;;;;;56.27;2.13;;;9.50;1.00;;;;;;5072973;28;20543;-66
2021/03/27 09:31:05;;;;;;;57.43;2.80;;;9.50;1.00;;;;;;5073160;28;20508;-66
2021/03/27 09:33:38;;;;;;;55.60;2.03;;;9.60;1.00;;;;;;5072536;28;20489;-66
2021/03/27 09:36:15;;;;;;;57.67;2.20;;;9.50;1.00;;;;;;5072698;28;20433;-66
2021/03/27 09:39:06;;;;;;;58.33;1.97;;;9.60;1.00;;;;;;5087888;28;20510;-66
2021/03/27 09:42:00;;;;;;;56.23;2.30;;;9.70;1.00;;;;;;5078268;28;20449;-66
2021/03/27 09:45:01;;;;;;;56.00;2.20;;;9.70;1.00;;;;;;5072430;28;20854;-65
2021/03/27 09:48:03;;;;;;;56.27;2.20;;;9.90;1.00;;;;;;5038730;28;20557;-66
2021/03/27 09:50:36;;;;;;;58.03;2.40;;;10.00;1.00;;;;;;5010467;28;20479;-66
2021/03/27 09:53:17;;;;;;;56.30;2.03;;;10.10;1.00;;;;;;5060143;28;20577;-66
2021/03/27 09:55:50;;;;;;;55.90;2.40;;;10.20;1.00;;;;;;5072640;28;20548;-66
2021/03/27 09:58:44;;;;;;;55.70;2.27;;;10.30;1.00;;;;;;5072344;28;20491;-66
2021/03/27 10:01:25;;;;;;;56.30;2.43;;;10.50;1.00;;;;;;5049908;28;20568;-66
2021/03/27 10:04:09;;;;;;;56.07;2.37;;;11.20;1.00;;;;;;5072158;28;20526;-66
2021/03/27 10:07:04;;;;;;;56.33;2.10;;;12.00;1.00;;;;;;5072156;28;20478;-66
2021/03/27 10:10:08;;;;;;;55.70;2.40;;;12.60;1.00;;;;;;5066357;28;20501;-65
2021/03/27 10:12:43;;;;;;;59.10;2.20;;;13.70;1.00;;;;;;5046069;28;20490;-66
2021/03/27 10:15:20;;;;;;;58.30;2.40;;;14.50;1.00;;;;;;5072125;28;20534;-66
2021/03/27 10:17:53;;;;;;;56.90;2.50;;;14.80;1.00;;;;;;5071946;28;20920;-66
2021/03/27 10:20:30;;;;;;;56.97;2.20;;;15.20;1.00;;;;;;5072142;28;20819;-66
2021/03/27 10:23:03;;;;;;;56.53;2.30;;;15.10;1.00;;;;;;5071442;28;20454;-66
2021/03/27 10:25:35;;;;;;;55.67;2.40;;;15.10;1.00;;;;;;5071158;28;20486;-66
2021/03/27 10:28:15;;;;;;;56.20;2.60;;;15.00;1.00;;;;;;5071600;28;20994;-66
2021/03/27 10:30:53;;;;;;;56.70;2.57;;;14.30;1.00;;;;;;5070854;28;20486;-66
2021/03/27 10:33:22;;;;;;;56.00;2.20;;;15.00;1.00;;;;;;5071460;28;21098;-66
2021/03/27 10:36:21;;;;;;;58.47;2.40;;;15.90;1.00;;;;;;5071693;28;20447;-66
2021/03/27 10:39:03;;;;;;;56.23;2.10;;;16.00;1.00;;;;;;5071844;28;20559;-66
2021/03/27 10:41:51;;;;;;;56.20;2.40;;;14.90;1.00;;;;;;5071658;28;20596;-66
2021/03/27 10:44:29;;;;;;;55.57;2.23;;;15.10;1.00;;;;;;5071654;28;20451;-66
2021/03/27 10:47:01;;;;;;;56.20;2.27;;;15.10;1.00;;;;;;5071394;28;20518;-66
2021/03/27 10:49:34;;;;;;;56.80;2.37;;;15.70;1.00;;;;;;5071646;28;20444;-66
2021/03/27 10:52:39;;;;;;;56.20;2.30;;;17.00;1.00;;;;;;5071515;28;20576;-66
2021/03/27 10:55:33;;;;;;;55.90;2.00;;;18.30;1.00;;;;;;5071286;28;20450;-66
2021/03/27 10:58:33;;;;;;;56.73;2.30;;;19.40;1.00;;;;;;5071423;28;20474;-66
2021/03/27 11:01:21;;;;;;;56.27;2.60;;;19.90;1.00;;;;;;5066042;28;20553;-66
2021/03/27 11:04:29;;;;;;;56.53;2.13;;;20.30;1.00;;;;;;5071537;28;20523;-65
2021/03/27 11:07:48;;;;;;;57.07;2.40;;;20.90;1.00;;;;;;5069405;28;20977;-64
2021/03/27 11:11:11;;;;;;;56.00;2.70;;;21.60;1.00;;;;;;5071323;28;20457;-65
2021/03/27 11:14:09;;;;;;;58.60;2.43;;;22.10;1.00;;;;;;4987138;28;20825;-65
2021/03/27 11:17:05;;;;;;;57.87;2.60;;;21.00;1.00;;;;;;5069456;28;20460;-67
2021/03/27 11:20:03;;;;;;;58.40;2.50;;;19.40;1.00;;;;;;5071037;28;20529;-65
2021/03/27 11:23:05;;;;;;;56.30;2.23;;;18.60;1.00;;;;;;5071234;28;20459;-65
2021/03/27 11:25:53;;;;;;;56.13;2.50;;;17.20;1.00;;;;;;5071250;28;20454;-65
2021/03/27 11:28:24;;;;;;;56.77;2.77;;;16.10;1.00;;;;;;5071043;28;20555;-65
2021/03/27 11:31:16;;;;;;;58.57;2.60;;;15.50;1.00;;;;;;5071110;28;20451;-65
2021/03/27 11:33:59;;;;;;;56.70;2.40;;;14.50;1.00;;;;;;5070778;28;20854;-64
2021/03/27 11:36:34;;;;;;;59.27;3.20;;;14.00;1.00;;;;;;5071013;28;20454;-65
2021/03/27 11:39:11;;;;;;;55.80;2.53;;;14.50;1.00;;;;;;5070802;28;20561;-66
2021/03/27 11:41:41;;;;;;;56.70;2.57;;;16.30;1.00;;;;;;5071606;28;20456;-66
2021/03/27 11:44:26;;;;;;;56.47;2.73;;;18.00;1.00;;;;;;5074910;28;20456;-66
2021/03/27 11:46:57;;;;;;;57.80;2.50;;;20.00;1.00;;;;;;5074941;28;20450;-65
2021/03/27 11:49:32;;;;;;;56.60;2.50;;;20.90;1.00;;;;;;5074502;28;20471;-65
2021/03/27 11:52:04;;;;;;;55.97;2.33;;;20.90;1.00;;;;;;5074616;28;20482;-66
2021/03/27 11:54:47;;;;;;;56.93;2.60;;;21.40;1.00;;;;;;5074848;28;20537;-65
2021/03/27 11:57:35;;;;;;;62.00;2.83;;;21.80;1.00;;;;;;5074523;28;20447;-65
2021/03/27 12:03:19;;;;;;;58.10;2.97;;;22.40;1.00;;;;;;5049756;28;20859;-65
2021/03/27 12:05:51;;;;;;;58.57;2.73;;;21.70;1.00;;;;;;5074302;28;20535;-65
2021/03/27 12:08:28;;;;;;;57.80;2.30;;;22.00;1.00;;;;;;5074260;28;20468;-66
2021/03/27 12:11:04;;;;;;;56.10;2.30;;;22.00;1.00;;;;;;5074623;28;20534;-66
2021/03/27 12:13:37;;;;;;;57.73;2.63;;;22.80;1.00;;;;;;5074607;28;21208;-65
2021/03/27 12:16:19;;;;;;;56.53;2.50;;;21.80;1.00;;;;;;5074250;28;20587;-66
2021/03/27 12:19:00;;;;;;;57.27;2.17;;;21.30;1.00;;;;;;5074013;28;20464;-65
2021/03/27 12:21:32;;;;;;;55.70;2.53;;;20.50;1.00;;;;;;5074319;28;20534;-66
2021/03/27 12:24:04;;;;;;;56.20;2.07;;;19.70;1.00;;;;;;5073932;28;20446;-66
2021/03/27 12:26:40;;;;;;;57.77;2.70;;;18.90;1.00;;;;;;5072874;28;20540;-66
2021/03/27 12:29:14;;;;;;;56.60;2.43;;;19.00;1.00;;;;;;5073835;28;20481;-66
2021/03/27 12:32:19;;;;;;;55.87;2.50;;;20.30;1.00;;;;;;5074338;28;20459;-65
2021/03/27 12:34:52;;;;;;;57.53;2.30;;;21.50;1.00;;;;;;5073950;28;20574;-64
2021/03/27 12:37:26;;;;;;;57.10;2.23;;;21.40;1.00;;;;;;5073810;28;20478;-65
2021/03/27 12:39:57;;;;;;;60.70;2.77;;;21.00;1.00;;;;;;5074255;28;20914;-66
2021/03/27 12:42:26;;;;;;;57.87;3.00;;;20.50;1.00;;;;;;5074171;28;20522;-65
2021/03/27 12:44:56;;;;;;;57.70;2.53;;;19.50;1.00;;;;;;5074225;28;20535;-65
2021/03/27 12:47:44;;;;;;;56.60;2.40;;;18.90;1.00;;;;;;5073936;28;20470;-66
2021/03/27 12:50:24;;;;;;;57.60;2.30;;;18.00;1.00;;;;;;5073705;28;21075;-66
2021/03/27 12:53:14;;;;;;;57.00;2.30;;;17.90;1.00;;;;;;5072182;28;20486;-66
2021/03/27 12:55:45;;;;;;;55.80;2.40;;;18.80;1.00;;;;;;5080696;28;20447;-67
2021/03/27 12:58:26;;;;;;;57.67;2.97;;;20.50;1.00;;;;;;5093635;28;20560;-67
2021/03/27 13:01:01;;;;;;;56.57;2.80;;;20.90;1.00;;;;;;5093830;28;20653;-66
2021/03/27 13:03:47;;;;;;;56.97;2.40;;;19.30;1.00;;;;;;5093666;28;20528;-66
2021/03/27 13:06:40;;;;;;;57.47;2.40;;;18.10;1.00;;;;;;5093666;28;20468;-67
2021/03/27 13:09:39;;;;;;;59.20;4.70;;;18.90;1.00;;;;;;5093784;28;20498;-65
2021/03/27 13:12:12;;;;;;;59.10;2.30;;;20.90;1.00;;;;;;5093461;28;20484;-65
2021/03/27 13:15:08;;;;;;;58.50;3.40;;;22.30;1.00;;;;;;5093432;28;20479;-66
2021/03/27 13:18:10;;;;;;;56.27;2.80;;;22.30;1.00;;;;;;5093599;28;20465;-66
2021/03/27 13:20:47;;;;;;;56.30;2.63;;;21.20;1.00;;;;;;5070560;28;20446;-66
2021/03/27 13:23:19;;;;;;;60.53;5.30;;;21.40;1.00;;;;;;5093143;28;20542;-67
2021/03/27 13:25:52;;;;;;;56.97;2.33;;;22.40;1.00;;;;;;5093383;28;20536;-67
2021/03/27 13:28:25;;;;;;;56.77;2.87;;;23.10;1.00;;;;;;5093151;28;20988;-67
2021/03/27 13:30:54;;;;;;;56.37;2.27;;;22.60;1.00;;;;;;5093254;28;20486;-65
2021/03/27 13:33:29;;;;;;;58.77;2.53;;;22.30;1.00;;;;;;5092880;28;20478;-66
2021/03/27 13:36:18;;;;;;;58.20;2.57;;;21.60;1.00;;;;;;5093355;28;20438;-65
2021/03/27 13:38:51;;;;;;;56.00;2.50;;;20.10;1.00;;;;;;5093137;28;20474;-67
2021/03/27 13:41:52;;;;;;;57.57;2.53;;;18.50;1.00;;;;;;5093172;28;20861;-65
2021/03/27 13:44:28;;;;;;;57.40;2.30;;;16.90;1.00;;;;;;5093257;28;20479;-65
2021/03/27 13:47:07;;;;;;;57.70;2.40;;;15.70;1.00;;;;;;5092895;28;20447;-66
2021/03/27 13:49:40;;;;;;;57.03;2.57;;;15.30;1.00;;;;;;5093003;28;20954;-67
2021/03/27 13:52:13;;;;;;;58.10;2.40;;;16.00;1.00;;;;;;5092665;28;20570;-67
2021/03/27 13:54:48;;;;;;;57.60;2.30;;;17.30;1.00;;;;;;5092934;28;20535;-65
2021/03/27 13:57:22;;;;;;;57.77;2.80;;;19.20;1.00;;;;;;5092677;28;20485;-65
2021/03/27 13:59:57;;;;;;;56.30;2.37;;;20.50;1.00;;;;;;5092847;28;20530;-65
2021/03/27 14:02:51;;;;;;;59.00;2.40;;;21.30;1.00;;;;;;5092532;28;21110;-65
2021/03/27 14:05:49;;;;;;;56.80;2.27;;;21.20;1.00;;;;;;5092415;28;20450;-66
2021/03/27 14:08:33;;;;;;;57.17;2.53;;;21.20;1.00;;;;;;5091330;28;20606;-66
2021/03/27 14:11:04;;;;;;;57.13;2.40;;;21.90;1.00;;;;;;5092268;28;20456;-66
2021/03/27 14:13:39;;;;;;;56.93;2.90;;;22.20;1.00;;;;;;5092496;28;20479;-66
2021/03/27 14:16:23;;;;;;;56.50;2.80;;;22.70;1.00;;;;;;5092709;28;20886;-66
2021/03/27 14:19:06;;;;;;;56.70;2.60;;;22.90;1.00;;;;;;5092291;28;20478;-66